Wetterdaten: Woche 08.07.24 - 14.07.24 (KW28)
Datum Zeit Temp. I. Temp. A. Feuchte I. Feuchte A. Luftdruck Regen Wind Richtung Sonnenschein Solar Taupunkt Windchill Windböen
08.07.2024 00:00 22,4 °C 14,0 °C 59 % 82 % 1015,9 hPa 0,0 l/m² 0,0 km/h (0 Bft) W 0,00 h 0 W/m² 11,1 °C 14,0 °C 0,0 km/h (0 Bft)
08.07.2024 01:00 22,4 °C 13,0 °C 59 % 83 % 1016,2 hPa 0,0 l/m² 0,0 km/h (0 Bft) W 0,00 h 0 W/m² 10,1 °C 13,0 °C 0,0 km/h (0 Bft)
08.07.2024 02:00 22,3 °C 12,0 °C 59 % 85 % 1016,5 hPa 0,0 l/m² 0,1 km/h (0 Bft) W 0,00 h 0 W/m² 9,6 °C 12,0 °C 0,2 km/h (0 Bft)
08.07.2024 03:00 22,3 °C 11,4 °C 59 % 88 % 1016,4 hPa 0,0 l/m² 0,1 km/h (0 Bft) W 0,00 h 0 W/m² 9,5 °C 11,4 °C 0,2 km/h (0 Bft)
08.07.2024 04:00 22,3 °C 10,6 °C 59 % 88 % 1016,5 hPa 0,0 l/m² 0,1 km/h (0 Bft) W 0,00 h 0 W/m² 8,7 °C 10,6 °C 0,3 km/h (0 Bft)
08.07.2024 05:00 22,3 °C 10,0 °C 59 % 89 % 1016,9 hPa 0,0 l/m² 0,0 km/h (0 Bft) W 0,00 h 14 W/m² 8,3 °C 10,0 °C 0,0 km/h (0 Bft)
08.07.2024 06:00 22,3 °C 11,0 °C 59 % 92 % 1017,2 hPa 0,0 l/m² 0,0 km/h (0 Bft) W 0,88 h 107 W/m² 9,7 °C 11,0 °C 0,0 km/h (0 Bft)
08.07.2024 07:00 22,3 °C 13,8 °C 59 % 90 % 1017,3 hPa 0,0 l/m² 0,1 km/h (0 Bft) NO 0,95 h 240 W/m² 12,1 °C 13,8 °C 0,2 km/h (0 Bft)
08.07.2024 08:00 22,3 °C 18,2 °C 58 % 72 % 1017,5 hPa 0,0 l/m² 2,9 km/h (1 Bft) S 1,00 h 330 W/m² 13,1 °C 18,2 °C 5,2 km/h (1 Bft)
08.07.2024 09:00 22,3 °C 22,5 °C 58 % 55 % 1017,6 hPa 0,0 l/m² 7,1 km/h (2 Bft) S-SW 1,00 h 604 W/m² 13,0 °C 22,1 °C 10,4 km/h (2 Bft)
08.07.2024 10:00 22,3 °C 24,7 °C 59 % 47 % 1017,7 hPa 0,0 l/m² 9,0 km/h (2 Bft) SW 1,00 h 750 W/m² 12,5 °C 24,0 °C 14,5 km/h (3 Bft)
08.07.2024 11:00 22,3 °C 26,2 °C 59 % 39 % 1017,7 hPa 0,0 l/m² 9,4 km/h (2 Bft) S-SW 1,00 h 860 W/m² 11,0 °C 25,6 °C 14,5 km/h (3 Bft)
08.07.2024 12:00 22,2 °C 27,3 °C 59 % 35 % 1017,9 hPa 0,0 l/m² 9,1 km/h (2 Bft) SW 1,00 h 947 W/m² 10,6 °C 26,8 °C 14,8 km/h (3 Bft)
08.07.2024 13:00 22,2 °C 27,5 °C 59 % 35 % 1017,9 hPa 0,0 l/m² 5,5 km/h (2 Bft) S-SW 1,00 h 762 W/m² 10,8 °C 27,3 °C 9,6 km/h (2 Bft)
08.07.2024 14:00 22,2 °C 28,5 °C 59 % 34 % 1017,5 hPa 0,0 l/m² 6,2 km/h (2 Bft) S-SW 1,00 h 927 W/m² 10,9 °C 28,4 °C 10,8 km/h (2 Bft)
08.07.2024 15:00 22,3 °C 29,7 °C 59 % 31 % 1017,3 hPa 0,0 l/m² 6,0 km/h (2 Bft) S-SW 1,00 h 816 W/m² 11,0 °C 29,6 °C 10,3 km/h (2 Bft)
08.07.2024 16:00 22,3 °C 29,9 °C 59 % 31 % 1017,1 hPa 0,0 l/m² 4,5 km/h (1 Bft) SO 1,00 h 765 W/m² 10,9 °C 29,9 °C 7,9 km/h (2 Bft)
08.07.2024 17:00 22,4 °C 28,2 °C 60 % 33 % 1017,0 hPa 0,0 l/m² 2,4 km/h (1 Bft) O-SO 1,00 h 318 W/m² 10,4 °C 28,2 °C 4,5 km/h (1 Bft)
08.07.2024 18:00 22,4 °C 27,9 °C 60 % 34 % 1016,9 hPa 0,0 l/m² 2,5 km/h (1 Bft) O 0,93 h 339 W/m² 10,5 °C 27,9 °C 4,6 km/h (1 Bft)
08.07.2024 19:00 22,4 °C 26,9 °C 60 % 36 % 1017,0 hPa 0,0 l/m² 1,4 km/h (1 Bft) O 0,30 h 48 W/m² 10,6 °C 26,9 °C 2,7 km/h (1 Bft)
08.07.2024 20:00 22,5 °C 25,4 °C 60 % 44 % 1017,2 hPa 0,0 l/m² 1,9 km/h (1 Bft) N 0,12 h 38 W/m² 12,2 °C 25,4 °C 3,8 km/h (1 Bft)
08.07.2024 21:00 22,8 °C 23,2 °C 61 % 56 % 1017,7 hPa 0,0 l/m² 0,4 km/h (0 Bft) N-NO 0,00 h 8 W/m² 13,8 °C 23,2 °C 1,7 km/h (1 Bft)
08.07.2024 22:00 22,7 °C 20,6 °C 61 % 68 % 1018,0 hPa 0,0 l/m² 0,7 km/h (0 Bft) N-NO 0,00 h 0 W/m² 14,4 °C 20,6 °C 1,3 km/h (1 Bft)
08.07.2024 23:00 22,6 °C 19,1 °C 61 % 72 % 1018,3 hPa 0,0 l/m² 0,8 km/h (0 Bft) N 0,00 h 0 W/m² 13,8 °C 19,1 °C 1,9 km/h (1 Bft)
09.07.2024 00:00 22,6 °C 18,4 °C 61 % 73 % 1018,4 hPa 0,0 l/m² 0,1 km/h (0 Bft) N 0,00 h 0 W/m² 13,4 °C 18,4 °C 0,6 km/h (0 Bft)
09.07.2024 01:00 22,5 °C 17,5 °C 61 % 76 % 1018,5 hPa 0,0 l/m² 0,1 km/h (0 Bft) N 0,00 h 0 W/m² 13,3 °C 17,5 °C 0,4 km/h (0 Bft)
09.07.2024 02:00 22,5 °C 16,0 °C 61 % 77 % 1018,4 hPa 0,0 l/m² 0,1 km/h (0 Bft) N 0,00 h 0 W/m² 12,0 °C 16,0 °C 0,2 km/h (0 Bft)
09.07.2024 03:00 22,4 °C 14,6 °C 61 % 81 % 1018,1 hPa 0,0 l/m² 0,1 km/h (0 Bft) N 0,00 h 0 W/m² 11,3 °C 14,6 °C 0,3 km/h (0 Bft)
09.07.2024 04:00 22,4 °C 13,5 °C 61 % 83 % 1018,0 hPa 0,0 l/m² 0,0 km/h (0 Bft) N 0,00 h 0 W/m² 10,6 °C 13,5 °C 0,0 km/h (0 Bft)
09.07.2024 05:00 22,4 °C 12,9 °C 61 % 84 % 1018,0 hPa 0,0 l/m² 0,0 km/h (0 Bft) N 0,00 h 17 W/m² 10,3 °C 12,9 °C 0,0 km/h (0 Bft)
09.07.2024 06:00 22,4 °C 13,4 °C 61 % 89 % 1018,1 hPa 0,0 l/m² 0,0 km/h (0 Bft) N 0,88 h 93 W/m² 11,6 °C 13,4 °C 0,0 km/h (0 Bft)
09.07.2024 07:00 22,4 °C 16,3 °C 61 % 87 % 1018,1 hPa 0,0 l/m² 0,2 km/h (0 Bft) O-SO 0,97 h 218 W/m² 14,0 °C 16,3 °C 0,7 km/h (0 Bft)
09.07.2024 08:00 22,5 °C 21,0 °C 61 % 71 % 1018,1 hPa 0,0 l/m² 1,5 km/h (1 Bft) O-SO 1,00 h 337 W/m² 15,6 °C 21,0 °C 3,7 km/h (1 Bft)
09.07.2024 09:00 22,6 °C 25,1 °C 60 % 56 % 1018,0 hPa 0,0 l/m² 4,1 km/h (1 Bft) SO 0,98 h 584 W/m² 15,8 °C 25,1 °C 7,1 km/h (2 Bft)
09.07.2024 10:00 22,7 °C 28,3 °C 59 % 52 % 1017,8 hPa 0,0 l/m² 3,4 km/h (1 Bft) SO 1,00 h 735 W/m² 17,5 °C 28,3 °C 6,2 km/h (2 Bft)
09.07.2024 11:00 22,6 °C 30,6 °C 61 % 47 % 1017,5 hPa 0,0 l/m² 8,0 km/h (2 Bft) O-SO 1,00 h 834 W/m² 18,0 °C 30,5 °C 13,0 km/h (3 Bft)
09.07.2024 12:00 22,6 °C 31,5 °C 61 % 44 % 1017,1 hPa 0,0 l/m² 10,3 km/h (2 Bft) O-SO 1,02 h 898 W/m² 17,7 °C 31,3 °C 15,7 km/h (3 Bft)
09.07.2024 13:00 22,9 °C 32,4 °C 63 % 42 % 1016,8 hPa 0,0 l/m² 9,5 km/h (2 Bft) O-SO 0,98 h 911 W/m² 17,8 °C 32,3 °C 14,9 km/h (3 Bft)
09.07.2024 14:00 22,9 °C 33,1 °C 62 % 40 % 1016,3 hPa 0,0 l/m² 10,0 km/h (2 Bft) O-SO 1,02 h 865 W/m² 17,4 °C 33,1 °C 15,2 km/h (3 Bft)
09.07.2024 15:00 23,1 °C 34,0 °C 63 % 38 % 1015,7 hPa 0,0 l/m² 8,3 km/h (2 Bft) O-SO 1,00 h 784 W/m² 17,7 °C 34,0 °C 13,2 km/h (3 Bft)
09.07.2024 16:00 23,2 °C 34,0 °C 64 % 37 % 1015,2 hPa 0,0 l/m² 7,0 km/h (2 Bft) O 1,00 h 671 W/m² 17,2 °C 34,0 °C 11,6 km/h (2 Bft)
09.07.2024 17:00 23,1 °C 33,9 °C 64 % 38 % 1014,6 hPa 0,0 l/m² 8,3 km/h (2 Bft) O-SO 1,00 h 523 W/m² 17,3 °C 33,9 °C 13,3 km/h (3 Bft)
09.07.2024 18:00 23,2 °C 32,7 °C 64 % 41 % 1014,2 hPa 0,0 l/m² 8,2 km/h (2 Bft) O 0,97 h 326 W/m² 17,8 °C 32,7 °C 12,5 km/h (2 Bft)
09.07.2024 19:00 23,3 °C 31,4 °C 65 % 45 % 1013,8 hPa 0,0 l/m² 7,8 km/h (2 Bft) O 0,00 h 34 W/m² 17,9 °C 31,3 °C 12,1 km/h (2 Bft)
09.07.2024 20:00 23,4 °C 29,7 °C 65 % 51 % 1013,5 hPa 0,0 l/m² 4,9 km/h (1 Bft) O 0,00 h 21 W/m² 18,4 °C 29,7 °C 7,2 km/h (2 Bft)
09.07.2024 21:00 23,6 °C 27,0 °C 65 % 60 % 1013,3 hPa 0,0 l/m² 4,5 km/h (1 Bft) O-NO 0,00 h 9 W/m² 18,6 °C 27,0 °C 6,8 km/h (2 Bft)
09.07.2024 22:00 23,8 °C 24,4 °C 65 % 68 % 1013,7 hPa 0,0 l/m² 2,7 km/h (1 Bft) O-NO 0,00 h 0 W/m² 18,0 °C 24,4 °C 4,5 km/h (1 Bft)
09.07.2024 23:00 23,7 °C 22,5 °C 65 % 73 % 1013,6 hPa 0,0 l/m² 4,0 km/h (1 Bft) O-NO 0,00 h 0 W/m² 17,5 °C 22,5 °C 5,8 km/h (2 Bft)
10.07.2024 00:00 23,6 °C 21,4 °C 65 % 76 % 1013,6 hPa 0,0 l/m² 0,9 km/h (0 Bft) O 0,00 h 0 W/m² 17,1 °C 21,4 °C 1,6 km/h (1 Bft)
10.07.2024 01:00 23,5 °C 20,0 °C 65 % 81 % 1013,4 hPa 0,0 l/m² 0,1 km/h (0 Bft) O 0,00 h 0 W/m² 16,6 °C 20,0 °C 0,3 km/h (0 Bft)
10.07.2024 02:00 23,4 °C 19,2 °C 65 % 85 % 1013,1 hPa 0,0 l/m² 0,8 km/h (0 Bft) S-SO 0,00 h 0 W/m² 16,6 °C 19,2 °C 1,8 km/h (1 Bft)
10.07.2024 03:00 23,4 °C 18,7 °C 65 % 86 % 1013,0 hPa 0,0 l/m² 0,0 km/h (0 Bft) S-SO 0,00 h 0 W/m² 16,3 °C 18,7 °C 0,1 km/h (0 Bft)
10.07.2024 04:00 23,3 °C 18,2 °C 65 % 87 % 1012,8 hPa 0,0 l/m² 0,0 km/h (0 Bft) S-SO 0,00 h 5 W/m² 16,1 °C 18,2 °C 0,0 km/h (0 Bft)
10.07.2024 05:00 23,3 °C 18,0 °C 65 % 89 % 1013,0 hPa 0,0 l/m² 2,1 km/h (1 Bft) S-SO 0,00 h 11 W/m² 16,1 °C 17,9 °C 4,7 km/h (1 Bft)
10.07.2024 06:00 23,3 °C 19,3 °C 64 % 90 % 1013,3 hPa 0,0 l/m² 1,3 km/h (1 Bft) W-SW 0,72 h 84 W/m² 17,6 °C 19,3 °C 3,4 km/h (1 Bft)
10.07.2024 07:00 23,3 °C 21,8 °C 64 % 81 % 1013,2 hPa 0,0 l/m² 2,4 km/h (1 Bft) W 1,00 h 234 W/m² 18,3 °C 21,8 °C 6,3 km/h (2 Bft)
10.07.2024 08:00 23,4 °C 25,8 °C 65 % 66 % 1013,7 hPa 0,0 l/m² 5,5 km/h (2 Bft) W 1,00 h 369 W/m² 19,0 °C 25,6 °C 11,1 km/h (2 Bft)
10.07.2024 09:00 23,6 °C 27,3 °C 66 % 60 % 1014,3 hPa 0,0 l/m² 6,3 km/h (2 Bft) W 1,00 h 321 W/m² 19,0 °C 27,2 °C 12,9 km/h (3 Bft)
10.07.2024 10:00 23,7 °C 26,2 °C 66 % 67 % 1014,6 hPa 0,2 l/m² 6,3 km/h (2 Bft) W-SW 0,70 h 72 W/m² 19,5 °C 25,9 °C 10,4 km/h (2 Bft)
10.07.2024 11:00 23,7 °C 23,1 °C 66 % 81 % 1014,7 hPa 0,0 l/m² 7,5 km/h (2 Bft) S-SW 1,00 h 343 W/m² 19,7 °C 22,7 °C 11,3 km/h (2 Bft)
10.07.2024 12:00 23,9 °C 27,3 °C 67 % 68 % 1014,3 hPa 0,0 l/m² 11,5 km/h (2 Bft) W-SW 1,00 h 875 W/m² 20,9 °C 26,5 °C 17,4 km/h (3 Bft)
10.07.2024 13:00 24,2 °C 30,7 °C 67 % 54 % 1014,2 hPa 0,0 l/m² 17,0 km/h (3 Bft) SW 1,00 h 833 W/m² 20,1 °C 30,1 °C 24,7 km/h (4 Bft)
10.07.2024 14:00 24,2 °C 31,6 °C 67 % 50 % 1014,2 hPa 0,0 l/m² 12,8 km/h (3 Bft) SW 1,00 h 696 W/m² 19,9 °C 31,3 °C 19,4 km/h (3 Bft)
10.07.2024 15:00 24,3 °C 30,8 °C 68 % 51 % 1014,5 hPa 0,0 l/m² 12,0 km/h (2 Bft) SW 1,00 h 410 W/m² 19,4 °C 30,5 °C 18,0 km/h (3 Bft)
10.07.2024 16:00 24,3 °C 29,5 °C 67 % 55 % 1014,4 hPa 0,0 l/m² 8,7 km/h (2 Bft) W-SW 1,00 h 227 W/m² 19,4 °C 29,2 °C 14,7 km/h (3 Bft)
10.07.2024 17:00 24,2 °C 28,2 °C 67 % 59 % 1014,5 hPa 0,2 l/m² 9,1 km/h (2 Bft) W-SW 0,47 h 63 W/m² 19,4 °C 27,8 °C 14,9 km/h (3 Bft)
10.07.2024 18:00 24,3 °C 24,2 °C 68 % 78 % 1015,7 hPa 2,4 l/m² 5,8 km/h (2 Bft) S-SW 0,00 h 20 W/m² 20,1 °C 23,8 °C 8,7 km/h (2 Bft)
10.07.2024 19:00 24,2 °C 22,1 °C 70 % 86 % 1015,4 hPa 0,2 l/m² 1,3 km/h (1 Bft) SW 0,00 h 44 W/m² 19,5 °C 22,1 °C 2,7 km/h (1 Bft)
10.07.2024 20:00 24,2 °C 21,3 °C 70 % 87 % 1015,3 hPa 0,0 l/m² 0,6 km/h (0 Bft) SW 0,00 h 29 W/m² 19,2 °C 21,3 °C 1,1 km/h (0 Bft)
10.07.2024 21:00 24,3 °C 20,7 °C 70 % 89 % 1016,1 hPa 0,0 l/m² 0,5 km/h (0 Bft) S 0,00 h 10 W/m² 18,9 °C 20,7 °C 1,0 km/h (0 Bft)
10.07.2024 22:00 24,3 °C 19,9 °C 69 % 90 % 1016,1 hPa 0,0 l/m² 0,1 km/h (0 Bft) S 0,00 h 0 W/m² 18,2 °C 19,9 °C 0,5 km/h (0 Bft)
10.07.2024 23:00 24,3 °C 19,5 °C 69 % 91 % 1016,3 hPa 0,0 l/m² 0,0 km/h (0 Bft) S 0,00 h 0 W/m² 18,0 °C 19,5 °C 0,1 km/h (0 Bft)
11.07.2024 00:00 24,1 °C 19,2 °C 68 % 92 % 1015,9 hPa 0,0 l/m² 0,6 km/h (0 Bft) S 0,00 h 0 W/m² 17,9 °C 19,2 °C 1,9 km/h (1 Bft)
11.07.2024 01:00 24,1 °C 19,5 °C 68 % 93 % 1015,8 hPa 0,2 l/m² 0,6 km/h (0 Bft) SO 0,00 h 0 W/m² 18,3 °C 19,5 °C 1,6 km/h (1 Bft)
11.07.2024 02:00 24,1 °C 19,5 °C 68 % 93 % 1015,6 hPa 0,0 l/m² 0,1 km/h (0 Bft) W-SW 0,00 h 0 W/m² 18,3 °C 19,5 °C 0,2 km/h (0 Bft)
11.07.2024 03:00 24,0 °C 19,3 °C 68 % 94 % 1015,3 hPa 0,2 l/m² 0,1 km/h (0 Bft) W-SW 0,00 h 0 W/m² 18,4 °C 19,3 °C 0,3 km/h (0 Bft)
11.07.2024 04:00 24,1 °C 19,2 °C 67 % 94 % 1015,3 hPa 0,0 l/m² 0,3 km/h (0 Bft) S-SW 0,00 h 0 W/m² 18,2 °C 19,2 °C 0,5 km/h (0 Bft)
11.07.2024 05:00 24,1 °C 18,9 °C 67 % 94 % 1015,7 hPa 0,0 l/m² 0,1 km/h (0 Bft) S-SW 0,00 h 10 W/m² 17,9 °C 18,9 °C 0,4 km/h (0 Bft)
11.07.2024 06:00 24,0 °C 19,1 °C 67 % 94 % 1015,8 hPa 0,0 l/m² 0,0 km/h (0 Bft) S-SW 0,63 h 52 W/m² 18,2 °C 19,1 °C 0,0 km/h (0 Bft)
11.07.2024 07:00 24,0 °C 20,0 °C 67 % 95 % 1015,9 hPa 0,0 l/m² 0,1 km/h (0 Bft) S-SW 1,03 h 132 W/m² 19,1 °C 20,0 °C 0,4 km/h (0 Bft)
11.07.2024 08:00 24,2 °C 20,9 °C 68 % 95 % 1016,3 hPa 0,0 l/m² 1,6 km/h (1 Bft) SW 1,00 h 271 W/m² 20,0 °C 20,9 °C 3,9 km/h (1 Bft)
11.07.2024 09:00 24,2 °C 22,5 °C 68 % 87 % 1016,5 hPa 0,0 l/m² 3,8 km/h (1 Bft) W 0,98 h 375 W/m² 20,3 °C 22,5 °C 8,5 km/h (2 Bft)
11.07.2024 10:00 24,1 °C 23,9 °C 68 % 77 % 1016,8 hPa 0,0 l/m² 3,5 km/h (1 Bft) W-NW 1,02 h 445 W/m² 19,7 °C 23,9 °C 8,3 km/h (2 Bft)
11.07.2024 11:00 24,1 °C 24,9 °C 68 % 73 % 1016,4 hPa 0,0 l/m² 3,2 km/h (1 Bft) W 0,98 h 518 W/m² 19,7 °C 24,9 °C 6,8 km/h (2 Bft)
11.07.2024 12:00 24,2 °C 26,9 °C 68 % 65 % 1016,2 hPa 0,0 l/m² 4,6 km/h (1 Bft) NW 1,02 h 889 W/m² 19,6 °C 26,9 °C 8,8 km/h (2 Bft)
11.07.2024 13:00 24,2 °C 28,2 °C 67 % 57 % 1016,2 hPa 0,0 l/m² 3,6 km/h (1 Bft) N-NW 1,00 h 614 W/m² 18,8 °C 28,2 °C 7,0 km/h (2 Bft)
11.07.2024 14:00 24,2 °C 28,5 °C 67 % 56 % 1016,0 hPa 0,0 l/m² 3,4 km/h (1 Bft) W-SW 1,00 h 555 W/m² 18,9 °C 28,5 °C 7,0 km/h (2 Bft)
11.07.2024 15:00 24,3 °C 29,1 °C 67 % 53 % 1015,8 hPa 0,0 l/m² 7,7 km/h (2 Bft) NW 0,98 h 538 W/m² 18,4 °C 28,8 °C 13,4 km/h (3 Bft)
11.07.2024 16:00 24,3 °C 27,6 °C 67 % 60 % 1015,8 hPa 0,0 l/m² 13,7 km/h (3 Bft) N-NW 1,02 h 619 W/m² 19,0 °C 26,6 °C 22,1 km/h (4 Bft)
11.07.2024 17:00 24,3 °C 26,6 °C 67 % 62 % 1015,8 hPa 0,0 l/m² 9,3 km/h (2 Bft) NW 0,98 h 282 W/m² 18,7 °C 26,1 °C 15,4 km/h (3 Bft)
11.07.2024 18:00 24,3 °C 25,4 °C 67 % 65 % 1015,9 hPa 0,0 l/m² 4,7 km/h (1 Bft) N-NW 1,02 h 160 W/m² 18,3 °C 25,4 °C 8,5 km/h (2 Bft)
11.07.2024 19:00 24,5 °C 25,2 °C 68 % 65 % 1016,0 hPa 0,0 l/m² 4,6 km/h (1 Bft) N-NW 0,47 h 74 W/m² 18,1 °C 25,2 °C 7,9 km/h (2 Bft)
11.07.2024 20:00 24,4 °C 24,8 °C 68 % 65 % 1016,1 hPa 0,0 l/m² 3,6 km/h (1 Bft) N-NW 0,20 h 34 W/m² 17,8 °C 24,8 °C 5,5 km/h (2 Bft)
11.07.2024 21:00 24,6 °C 23,4 °C 68 % 69 % 1016,1 hPa 0,0 l/m² 2,5 km/h (1 Bft) N-NW 0,00 h 8 W/m² 17,4 °C 23,4 °C 4,1 km/h (1 Bft)
11.07.2024 22:00 24,8 °C 21,2 °C 68 % 75 % 1016,4 hPa 0,0 l/m² 0,6 km/h (0 Bft) N 0,00 h 0 W/m² 16,7 °C 21,2 °C 1,2 km/h (1 Bft)
11.07.2024 23:00 24,6 °C 19,8 °C 68 % 81 % 1016,1 hPa 0,0 l/m² 0,2 km/h (0 Bft) N-NW 0,00 h 0 W/m² 16,4 °C 19,8 °C 0,6 km/h (0 Bft)
12.07.2024 00:00 24,4 °C 19,0 °C 68 % 84 % 1015,9 hPa 0,0 l/m² 0,0 km/h (0 Bft) W-SW 0,00 h 0 W/m² 16,3 °C 19,0 °C 0,0 km/h (0 Bft)
12.07.2024 01:00 24,3 °C 18,4 °C 68 % 87 % 1015,6 hPa 0,0 l/m² 0,1 km/h (0 Bft) W-SW 0,00 h 0 W/m² 16,1 °C 18,4 °C 0,3 km/h (0 Bft)
12.07.2024 02:00 24,3 °C 18,4 °C 68 % 89 % 1015,5 hPa 5,4 l/m² 5,9 km/h (2 Bft) NO 0,00 h 0 W/m² 16,6 °C 17,9 °C 9,1 km/h (2 Bft)
12.07.2024 03:00 24,3 °C 18,2 °C 67 % 91 % 1014,9 hPa 0,0 l/m² 2,7 km/h (1 Bft) NO 0,00 h 0 W/m² 16,7 °C 18,2 °C 4,7 km/h (1 Bft)
12.07.2024 04:00 24,3 °C 18,1 °C 67 % 92 % 1014,7 hPa 16,4 l/m² 5,4 km/h (2 Bft) N 0,00 h 0 W/m² 16,7 °C 17,7 °C 9,6 km/h (2 Bft)
12.07.2024 05:00 24,3 °C 17,7 °C 67 % 93 % 1014,7 hPa 5,8 l/m² 5,8 km/h (2 Bft) N-NO 0,00 h 12 W/m² 16,5 °C 17,3 °C 11,1 km/h (2 Bft)
12.07.2024 06:00 24,3 °C 17,7 °C 67 % 94 % 1014,0 hPa 0,0 l/m² 1,8 km/h (1 Bft) O 0,52 h 60 W/m² 16,7 °C 17,7 °C 4,7 km/h (1 Bft)
12.07.2024 07:00 24,3 °C 18,0 °C 66 % 94 % 1013,6 hPa 0,0 l/m² 2,5 km/h (1 Bft) NO 1,00 h 185 W/m² 17,1 °C 18,0 °C 5,4 km/h (2 Bft)
12.07.2024 08:00 24,2 °C 19,3 °C 67 % 93 % 1012,9 hPa 0,0 l/m² 5,5 km/h (2 Bft) NO 1,00 h 235 W/m² 18,0 °C 19,1 °C 9,9 km/h (2 Bft)
12.07.2024 09:00 24,3 °C 20,2 °C 67 % 90 % 1012,2 hPa 0,0 l/m² 5,2 km/h (1 Bft) NO 1,00 h 180 W/m² 18,5 °C 20,1 °C 9,0 km/h (2 Bft)
12.07.2024 10:00 24,2 °C 20,5 °C 66 % 89 % 1011,4 hPa 0,0 l/m² 4,0 km/h (1 Bft) NO 1,00 h 76 W/m² 18,6 °C 20,5 °C 7,1 km/h (2 Bft)
12.07.2024 11:00 24,2 °C 20,3 °C 67 % 91 % 1011,0 hPa 1,2 l/m² 2,9 km/h (1 Bft) NW 0,02 h 30 W/m² 18,7 °C 20,3 °C 4,9 km/h (1 Bft)
12.07.2024 12:00 24,2 °C 19,9 °C 67 % 92 % 1011,2 hPa 5,2 l/m² 3,8 km/h (1 Bft) NW 0,00 h 18 W/m² 18,6 °C 19,7 °C 6,3 km/h (2 Bft)
12.07.2024 13:00 24,2 °C 20,4 °C 67 % 94 % 1009,5 hPa 0,4 l/m² 2,5 km/h (1 Bft) N-NO 0,97 h 340 W/m² 19,4 °C 20,3 °C 4,7 km/h (1 Bft)
12.07.2024 14:00 24,2 °C 23,3 °C 67 % 92 % 1008,8 hPa 0,0 l/m² 7,4 km/h (2 Bft) O 1,00 h 666 W/m² 21,9 °C 22,8 °C 11,4 km/h (2 Bft)
12.07.2024 15:00 24,3 °C 25,5 °C 67 % 79 % 1008,6 hPa 0,0 l/m² 4,3 km/h (1 Bft) S-SO 1,00 h 396 W/m² 21,5 °C 25,5 °C 6,3 km/h (2 Bft)
12.07.2024 16:00 24,3 °C 26,1 °C 67 % 75 % 1007,8 hPa 0,0 l/m² 5,9 km/h (2 Bft) SO 1,00 h 399 W/m² 21,4 °C 25,9 °C 8,3 km/h (2 Bft)
12.07.2024 17:00 24,4 °C 26,4 °C 67 % 73 % 1007,3 hPa 0,0 l/m² 7,5 km/h (2 Bft) S 1,00 h 246 W/m² 21,2 °C 26,1 °C 10,4 km/h (2 Bft)
12.07.2024 18:00 24,4 °C 25,5 °C 68 % 77 % 1006,5 hPa 0,0 l/m² 3,1 km/h (1 Bft) S 0,70 h 57 W/m² 21,1 °C 25,5 °C 4,8 km/h (1 Bft)
12.07.2024 19:00 24,4 °C 24,8 °C 68 % 76 % 1006,4 hPa 0,0 l/m² 4,9 km/h (1 Bft) S 0,70 h 79 W/m² 20,3 °C 24,5 °C 7,1 km/h (2 Bft)
12.07.2024 20:00 24,5 °C 23,7 °C 67 % 78 % 1006,6 hPa 0,0 l/m² 1,0 km/h (0 Bft) O-SO 0,00 h 18 W/m² 19,5 °C 23,7 °C 1,8 km/h (1 Bft)
12.07.2024 21:00 24,7 °C 21,9 °C 66 % 81 % 1006,8 hPa 0,0 l/m² 1,8 km/h (1 Bft) SO 0,00 h 8 W/m² 18,6 °C 21,9 °C 3,1 km/h (1 Bft)
12.07.2024 22:00 24,5 °C 21,0 °C 67 % 84 % 1007,3 hPa 0,0 l/m² 2,7 km/h (1 Bft) SW 0,00 h 0 W/m² 18,2 °C 21,0 °C 4,4 km/h (1 Bft)
12.07.2024 23:00 24,3 °C 20,1 °C 67 % 85 % 1008,2 hPa 0,0 l/m² 5,3 km/h (1 Bft) NW 0,00 h 0 W/m² 17,5 °C 19,9 °C 9,8 km/h (2 Bft)
13.07.2024 00:00 24,3 °C 18,7 °C 66 % 85 % 1009,2 hPa 0,0 l/m² 4,9 km/h (1 Bft) NW 0,00 h 0 W/m² 16,1 °C 18,6 °C 9,3 km/h (2 Bft)
13.07.2024 01:00 24,3 °C 17,6 °C 66 % 86 % 1009,4 hPa 0,0 l/m² 1,9 km/h (1 Bft) W 0,00 h 0 W/m² 15,2 °C 17,6 °C 4,7 km/h (1 Bft)
13.07.2024 02:00 24,3 °C 16,8 °C 66 % 87 % 1009,5 hPa 0,0 l/m² 5,4 km/h (2 Bft) SW 0,00 h 0 W/m² 14,6 °C 16,5 °C 7,8 km/h (2 Bft)
13.07.2024 03:00 24,3 °C 16,0 °C 66 % 85 % 1009,5 hPa 0,0 l/m² 7,8 km/h (2 Bft) W-SW 0,00 h 0 W/m² 13,4 °C 15,2 °C 11,5 km/h (2 Bft)
13.07.2024 04:00 24,3 °C 15,5 °C 65 % 84 % 1010,4 hPa 0,0 l/m² 5,7 km/h (2 Bft) W-SW 0,00 h 0 W/m² 12,8 °C 15,2 °C 10,1 km/h (2 Bft)
13.07.2024 05:00 24,2 °C 15,2 °C 65 % 85 % 1010,7 hPa 0,0 l/m² 5,1 km/h (1 Bft) W-SW 0,00 h 9 W/m² 12,6 °C 15,2 °C 7,7 km/h (2 Bft)
13.07.2024 06:00 24,1 °C 14,9 °C 65 % 84 % 1011,2 hPa 0,0 l/m² 6,1 km/h (2 Bft) SW 0,45 h 49 W/m² 12,3 °C 14,7 °C 8,2 km/h (2 Bft)
13.07.2024 07:00 24,1 °C 14,9 °C 65 % 84 % 1011,6 hPa 0,0 l/m² 8,4 km/h (2 Bft) W-SW 0,63 h 153 W/m² 12,1 °C 13,7 °C 12,8 km/h (3 Bft)
13.07.2024 08:00 23,9 °C 17,0 °C 60 % 77 % 1012,0 hPa 0,0 l/m² 14,2 km/h (3 Bft) W-SW 1,00 h 340 W/m² 12,8 °C 13,9 °C 20,5 km/h (4 Bft)
13.07.2024 09:00 23,7 °C 18,1 °C 55 % 70 % 1012,2 hPa 0,0 l/m² 12,3 km/h (2 Bft) W-SW 0,97 h 301 W/m² 12,6 °C 15,8 °C 18,4 km/h (3 Bft)
13.07.2024 10:00 23,6 °C 19,1 °C 54 % 67 % 1012,2 hPa 0,0 l/m² 13,3 km/h (3 Bft) SW 1,03 h 517 W/m² 12,8 °C 16,7 °C 19,3 km/h (3 Bft)
13.07.2024 11:00 23,8 °C 21,4 °C 54 % 60 % 1012,2 hPa 0,0 l/m² 16,2 km/h (3 Bft) SW 1,00 h 851 W/m² 13,3 °C 18,7 °C 22,2 km/h (4 Bft)
13.07.2024 12:00 24,1 °C 21,8 °C 57 % 56 % 1012,2 hPa 0,0 l/m² 14,6 km/h (3 Bft) SW 1,00 h 638 W/m² 12,7 °C 19,6 °C 20,4 km/h (4 Bft)
13.07.2024 13:00 24,4 °C 22,6 °C 59 % 54 % 1012,2 hPa 0,0 l/m² 16,1 km/h (3 Bft) SW 1,00 h 765 W/m² 12,8 °C 20,3 °C 21,9 km/h (4 Bft)
13.07.2024 14:00 24,3 °C 23,8 °C 58 % 50 % 1012,3 hPa 0,0 l/m² 17,3 km/h (3 Bft) SW 1,00 h 981 W/m² 12,8 °C 21,6 °C 23,7 km/h (4 Bft)
13.07.2024 15:00 24,2 °C 24,7 °C 57 % 48 % 1012,2 hPa 0,0 l/m² 17,9 km/h (3 Bft) SW 1,00 h 824 W/m² 12,8 °C 22,5 °C 24,2 km/h (4 Bft)
13.07.2024 16:00 24,1 °C 24,9 °C 58 % 47 % 1011,8 hPa 0,0 l/m² 17,0 km/h (3 Bft) SW 1,00 h 692 W/m² 12,7 °C 23,0 °C 22,8 km/h (4 Bft)
13.07.2024 17:00 24,1 °C 25,1 °C 58 % 46 % 1011,8 hPa 0,0 l/m² 16,1 km/h (3 Bft) SW 1,00 h 559 W/m² 12,6 °C 23,3 °C 22,1 km/h (4 Bft)
13.07.2024 18:00 24,1 °C 24,4 °C 59 % 47 % 1011,9 hPa 0,0 l/m² 13,3 km/h (3 Bft) W-SW 1,00 h 313 W/m² 12,3 °C 22,9 °C 18,9 km/h (3 Bft)
13.07.2024 19:00 24,2 °C 23,1 °C 59 % 51 % 1012,0 hPa 0,0 l/m² 7,3 km/h (2 Bft) SW 0,30 h 51 W/m² 12,3 °C 22,7 °C 10,2 km/h (2 Bft)
13.07.2024 20:00 24,3 °C 21,9 °C 59 % 57 % 1012,3 hPa 0,0 l/m² 1,6 km/h (1 Bft) W-SW 0,00 h 21 W/m² 13,0 °C 21,9 °C 2,4 km/h (1 Bft)
13.07.2024 21:00 24,5 °C 20,0 °C 60 % 70 % 1012,6 hPa 0,0 l/m² 0,0 km/h (0 Bft) W-SW 0,00 h 9 W/m² 14,4 °C 20,0 °C 0,0 km/h (0 Bft)
13.07.2024 22:00 24,5 °C 18,2 °C 59 % 77 % 1012,9 hPa 0,0 l/m² 0,0 km/h (0 Bft) W-SW 0,00 h 0 W/m² 14,1 °C 18,2 °C 0,0 km/h (0 Bft)
13.07.2024 23:00 24,2 °C 16,8 °C 60 % 81 % 1013,1 hPa 0,0 l/m² 0,0 km/h (0 Bft) W-SW 0,00 h 0 W/m² 13,5 °C 16,8 °C 0,0 km/h (0 Bft)
14.07.2024 00:00 24,2 °C 16,3 °C 60 % 84 % 1013,4 hPa 0,0 l/m² 0,0 km/h (0 Bft) W-SW 0,00 h 0 W/m² 13,6 °C 16,3 °C 0,0 km/h (0 Bft)
14.07.2024 01:00 24,1 °C 16,2 °C 60 % 87 % 1013,4 hPa 0,0 l/m² 0,0 km/h (0 Bft) W-SW 0,00 h 0 W/m² 14,0 °C 16,2 °C 0,2 km/h (0 Bft)
14.07.2024 02:00 24,1 °C 15,6 °C 60 % 87 % 1013,5 hPa 0,0 l/m² 0,1 km/h (0 Bft) W 0,00 h 0 W/m² 13,5 °C 15,6 °C 0,3 km/h (0 Bft)
14.07.2024 03:00 24,1 °C 15,0 °C 60 % 88 % 1013,3 hPa 0,0 l/m² 0,2 km/h (0 Bft) W 0,00 h 0 W/m² 13,0 °C 15,0 °C 1,1 km/h (1 Bft)
14.07.2024 04:00 24,1 °C 14,7 °C 60 % 89 % 1013,4 hPa 0,0 l/m² 0,6 km/h (0 Bft) W 0,00 h 0 W/m² 12,9 °C 14,7 °C 1,3 km/h (1 Bft)
14.07.2024 05:00 24,0 °C 14,4 °C 61 % 89 % 1013,5 hPa 0,0 l/m² 0,4 km/h (0 Bft) W 0,00 h 13 W/m² 12,7 °C 14,4 °C 1,0 km/h (0 Bft)
14.07.2024 06:00 23,9 °C 14,4 °C 60 % 90 % 1014,0 hPa 0,0 l/m² 1,3 km/h (1 Bft) W-SW 0,58 h 87 W/m² 12,8 °C 14,4 °C 2,9 km/h (1 Bft)
14.07.2024 07:00 23,9 °C 15,6 °C 60 % 91 % 1014,0 hPa 0,0 l/m² 0,6 km/h (0 Bft) W-SW 0,97 h 127 W/m² 14,1 °C 15,6 °C 1,6 km/h (1 Bft)
14.07.2024 08:00 23,8 °C 18,0 °C 58 % 80 % 1014,0 hPa 0,0 l/m² 1,4 km/h (1 Bft) W-SW 1,00 h 336 W/m² 14,5 °C 18,0 °C 2,9 km/h (1 Bft)
14.07.2024 09:00 23,8 °C 22,1 °C 56 % 63 % 1014,1 hPa 0,0 l/m² 5,6 km/h (2 Bft) O 1,02 h 607 W/m² 14,6 °C 21,9 °C 8,4 km/h (2 Bft)
14.07.2024 10:00 23,6 °C 23,7 °C 53 % 55 % 1014,0 hPa 0,0 l/m² 5,1 km/h (1 Bft) O-SO 1,00 h 738 W/m² 14,1 °C 23,6 °C 8,3 km/h (2 Bft)
14.07.2024 11:00 23,7 °C 24,8 °C 55 % 53 % 1013,7 hPa 0,0 l/m² 5,5 km/h (2 Bft) S-SO 1,00 h 587 W/m² 14,5 °C 24,6 °C 8,9 km/h (2 Bft)
14.07.2024 12:00 23,8 °C 25,5 °C 58 % 49 % 1013,4 hPa 0,0 l/m² 6,1 km/h (2 Bft) S-SW 1,00 h 662 W/m² 14,1 °C 25,2 °C 10,1 km/h (2 Bft)
14.07.2024 13:00 24,1 °C 25,9 °C 60 % 45 % 1013,1 hPa 0,0 l/m² 9,9 km/h (2 Bft) S-SW 1,00 h 607 W/m² 13,0 °C 25,1 °C 14,2 km/h (3 Bft)
14.07.2024 14:00 24,1 °C 25,9 °C 60 % 43 % 1013,0 hPa 0,0 l/m² 13,5 km/h (3 Bft) S-SW 1,00 h 677 W/m² 12,3 °C 24,7 °C 18,6 km/h (3 Bft)
14.07.2024 15:00 24,0 °C 27,0 °C 60 % 41 % 1012,8 hPa 0,0 l/m² 10,5 km/h (2 Bft) SW 1,00 h 655 W/m² 12,6 °C 26,4 °C 15,0 km/h (3 Bft)
14.07.2024 16:00 24,1 °C 27,8 °C 60 % 39 % 1012,5 hPa 0,0 l/m² 10,5 km/h (2 Bft) SW 1,00 h 559 W/m² 12,4 °C 27,3 °C 15,4 km/h (3 Bft)
14.07.2024 17:00 24,1 °C 26,8 °C 60 % 40 % 1012,5 hPa 0,0 l/m² 11,4 km/h (2 Bft) SW 1,00 h 462 W/m² 12,2 °C 26,0 °C 16,4 km/h (3 Bft)
14.07.2024 18:00 24,1 °C 26,3 °C 58 % 41 % 1012,6 hPa 0,0 l/m² 14,2 km/h (3 Bft) SW 1,00 h 266 W/m² 12,0 °C 25,0 °C 19,5 km/h (3 Bft)
14.07.2024 19:00 24,2 °C 25,1 °C 55 % 46 % 1012,7 hPa 0,0 l/m² 6,4 km/h (2 Bft) SW 0,82 h 103 W/m² 12,7 °C 24,9 °C 9,0 km/h (2 Bft)
14.07.2024 20:00 24,2 °C 23,8 °C 56 % 54 % 1012,9 hPa 0,0 l/m² 1,2 km/h (1 Bft) S 0,00 h 32 W/m² 13,9 °C 23,8 °C 1,8 km/h (1 Bft)
14.07.2024 21:00 24,4 °C 21,7 °C 57 % 63 % 1013,3 hPa 0,0 l/m² 0,6 km/h (0 Bft) W-NW 0,00 h 7 W/m² 14,3 °C 21,7 °C 1,6 km/h (1 Bft)
14.07.2024 22:00 24,3 °C 19,6 °C 57 % 72 % 1013,3 hPa 0,0 l/m² 0,0 km/h (0 Bft) W-NW 0,00 h 0 W/m² 14,4 °C 19,6 °C 0,1 km/h (0 Bft)
14.07.2024 23:00 24,2 °C 18,3 °C 58 % 78 % 1013,3 hPa 0,0 l/m² 0,0 km/h (0 Bft) W-NW 0,00 h 0 W/m² 14,4 °C 18,3 °C 0,0 km/h (0 Bft)
Min-Datum _ 08.07.24 08.07.24 14.07.24 08.07.24 12.07.24 - 14.07.24 - - - 08.07.24 08.07.24 14.07.24
_ Min-Zeit 14:00 06:00 10:09 16:43 19:06 - 23:01 - - - 06:00 06:00 23:01
Minimum _ 22,2 °C 9,8 °C 52 % 29 % 1006,1 hPa - 0,0 km/h (0 Bft) - - - 8,1 °C 9,8 °C 0,0 km/h (0 Bft)
Max-Datum _ 11.07.24 09.07.24 10.07.24 12.07.24 09.07.24 12.07.24 13.07.24 - 13.07.24 14.07.24 12.07.24 09.07.24 13.07.24
_ Max-Zeit 22:10 15:41 22:12 13:46 01:04 04:45 15:39 - 10:03 13:07 14:59 15:41 15:39
Maximum _ 24,8 °C 34,2 °C 70 % 96 % 1018,6 hPa 16,4 l/m² 27,9 km/h
SW (5 Bft)
- 0,10 h 1176 W/m² 22,4 °C 34,2 °C 41,8 km/h
SW (6 Bft)
Durchschnitt _ 23,7 °C 22,0 °C 63 % 70 % 1014,2 hPa #37,8 l/m² 4,6 km/h (1 Bft) W-SW #86:53 h 253 W/m² 15,6 °C 21,7 °C 7,4 km/h (2 Bft)
© 2009 Mathias Hoßbach